createdAt,value
2023-02-08T00:02:08.261Z,-4.81
2023-02-08T00:04:37.666Z,-4.87
2023-02-08T00:07:07.119Z,-4.92
2023-02-08T00:09:36.493Z,-4.94
2023-02-08T00:12:06.014Z,-4.99
2023-02-08T00:14:35.630Z,-5.01
2023-02-08T00:17:05.305Z,-5.00
2023-02-08T00:19:34.617Z,-5.08
2023-02-08T00:22:04.616Z,-5.11
2023-02-08T00:24:34.498Z,-5.15
2023-02-08T00:27:04.563Z,-5.18
2023-02-08T00:29:33.951Z,-5.21
2023-02-08T00:32:03.978Z,-5.38
2023-02-08T00:34:35.624Z,-5.55
2023-02-08T00:37:05.976Z,-5.69
2023-02-08T00:39:35.449Z,-5.75
2023-02-08T00:42:05.344Z,-5.82
2023-02-08T00:44:35.251Z,-5.85
2023-02-08T00:47:05.093Z,-5.87
2023-02-08T00:49:34.011Z,-5.95
2023-02-08T00:52:03.925Z,-6.17
2023-02-08T00:54:35.595Z,-6.28
2023-02-08T00:57:05.432Z,-6.39
2023-02-08T00:59:35.401Z,-6.48
2023-02-08T01:02:05.332Z,-6.58
2023-02-08T01:04:35.228Z,-6.70
2023-02-08T01:07:05.754Z,-6.81
2023-02-08T01:09:35.556Z,-6.91
2023-02-08T01:12:06.173Z,-7.02
2023-02-08T01:14:37.563Z,-7.08
2023-02-08T01:17:10.621Z,-7.14
2023-02-08T01:19:42.430Z,-7.18
2023-02-08T01:22:13.999Z,-7.24
2023-02-08T01:24:43.945Z,-7.36
2023-02-08T01:27:13.613Z,-7.41
2023-02-08T01:29:43.126Z,-7.44
2023-02-08T01:32:12.073Z,-7.49
2023-02-08T01:34:44.040Z,-7.55
2023-02-08T01:37:13.948Z,-7.65
2023-02-08T01:39:43.527Z,-7.78
2023-02-08T01:42:16.420Z,-7.91
2023-02-08T01:45:05.808Z,-7.99
2023-02-08T01:47:35.710Z,-8.05
2023-02-08T01:50:04.575Z,-8.07
2023-02-08T01:52:34.563Z,-8.10
2023-02-08T01:55:10.161Z,-8.12
2023-02-08T01:57:42.100Z,-8.11
2023-02-08T02:00:11.387Z,-8.14
2023-02-08T02:02:46.444Z,-8.22
2023-02-08T02:05:19.359Z,-8.23
2023-02-08T02:07:50.612Z,-8.25
2023-02-08T02:13:25.461Z,-8.34
2023-02-08T02:15:56.835Z,-8.36
2023-02-08T02:18:28.266Z,-8.44
2023-02-08T02:21:16.222Z,-8.48
2023-02-08T02:24:04.343Z,-8.51
2023-02-08T02:26:36.047Z,-8.58
2023-02-08T02:29:23.994Z,-8.63
2023-02-08T02:32:10.853Z,-8.66
2023-02-08T02:35:02.686Z,-8.68
2023-02-08T02:38:11.307Z,-8.76
2023-02-08T02:40:45.776Z,-8.82
2023-02-08T02:43:46.667Z,-8.87
2023-02-08T02:46:29.858Z,-8.94
2023-02-08T02:48:59.368Z,-9.02
2023-02-08T02:51:28.641Z,-9.08
2023-02-08T02:54:07.810Z,-9.11
2023-02-08T02:56:40.284Z,-9.11
2023-02-08T02:59:10.798Z,-9.12
2023-02-08T03:01:40.547Z,-9.15
2023-02-08T03:04:28.706Z,-9.18
2023-02-08T03:07:17.371Z,-9.23
2023-02-08T03:09:52.310Z,-9.28
2023-02-08T03:12:21.440Z,-9.34
2023-02-08T03:14:56.633Z,-9.38
2023-02-08T03:17:33.791Z,-9.44
2023-02-08T03:20:06.075Z,-9.46
2023-02-08T03:22:41.307Z,-9.49
2023-02-08T03:25:30.326Z,-9.53
2023-02-08T03:28:13.861Z,-9.55
2023-02-08T03:30:46.386Z,-9.55
2023-02-08T03:33:25.536Z,-9.58
2023-02-08T03:36:00.180Z,-9.58
2023-02-08T03:38:37.509Z,-9.58
2023-02-08T03:41:08.398Z,-9.58
2023-02-08T03:43:41.439Z,-9.57
2023-02-08T03:46:26.204Z,-9.57
2023-02-08T03:49:02.861Z,-9.58
2023-02-08T03:51:35.399Z,-9.62
2023-02-08T03:54:07.206Z,-9.69
2023-02-08T03:56:42.431Z,-9.76
2023-02-08T03:59:17.267Z,-9.81
2023-02-08T04:01:49.355Z,-9.82
2023-02-08T04:04:19.375Z,-9.83
2023-02-08T04:06:48.525Z,-9.82
2023-02-08T04:09:17.781Z,-9.81
2023-02-08T04:11:46.917Z,-9.81
2023-02-08T04:14:16.213Z,-9.81
2023-02-08T04:16:45.520Z,-9.84
2023-02-08T04:19:14.935Z,-9.88
2023-02-08T04:21:44.019Z,-9.93
2023-02-08T04:24:13.998Z,-10.02
2023-02-08T04:26:43.677Z,-10.09
2023-02-08T04:29:13.237Z,-10.13
2023-02-08T04:31:43.112Z,-10.17
2023-02-08T04:34:12.620Z,-10.21
2023-02-08T04:36:41.893Z,-10.21
2023-02-08T04:39:11.327Z,-10.21
2023-02-08T04:41:40.668Z,-10.26
2023-02-08T04:44:10.373Z,-10.31
2023-02-08T04:46:40.025Z,-10.38
2023-02-08T04:49:09.613Z,-10.44
2023-02-08T04:51:39.059Z,-10.40
2023-02-08T04:54:08.590Z,-10.36
2023-02-08T04:56:38.172Z,-10.42
2023-02-08T04:59:07.712Z,-10.45
2023-02-08T05:01:37.416Z,-10.50
2023-02-08T05:04:06.508Z,-10.55
2023-02-08T05:06:35.934Z,-10.56
2023-02-08T05:09:07.902Z,-10.57
2023-02-08T05:11:37.784Z,-10.60
2023-02-08T05:14:06.310Z,-10.62
2023-02-08T05:16:37.329Z,-10.66
2023-02-08T05:19:06.407Z,-10.69
2023-02-08T05:21:36.125Z,-10.75
2023-02-08T05:24:04.602Z,-10.84
2023-02-08T05:26:35.335Z,-10.96
2023-02-08T05:29:06.782Z,-11.05
2023-02-08T05:31:36.156Z,-11.03
2023-02-08T05:34:04.721Z,-10.93
2023-02-08T05:36:33.825Z,-10.93
2023-02-08T05:39:03.409Z,-10.95
2023-02-08T05:41:33.093Z,-10.92
2023-02-08T05:44:02.682Z,-10.83
2023-02-08T05:46:32.765Z,-10.83
2023-02-08T05:49:02.683Z,-10.87
2023-02-08T05:51:32.160Z,-10.89
2023-02-08T05:54:01.727Z,-10.89
2023-02-08T05:56:32.789Z,-10.88
2023-02-08T05:59:02.948Z,-10.87
2023-02-08T06:01:32.171Z,-10.86
2023-02-08T06:04:01.677Z,-10.90
2023-02-08T06:06:30.878Z,-10.94
2023-02-08T06:09:00.138Z,-11.00
2023-02-08T06:11:29.475Z,-11.04
2023-02-08T06:13:58.911Z,-11.01
2023-02-08T06:16:27.955Z,-10.99
2023-02-08T06:18:56.795Z,-10.95
2023-02-08T06:21:26.197Z,-10.91
2023-02-08T06:23:56.059Z,-10.91
2023-02-08T06:26:25.229Z,-10.90
2023-02-08T06:28:54.287Z,-10.84
2023-02-08T06:31:23.558Z,-10.72
2023-02-08T06:33:52.726Z,-10.60
2023-02-08T06:36:22.233Z,-10.46
2023-02-08T06:38:51.890Z,-10.31
2023-02-08T06:41:20.612Z,-10.17
2023-02-08T06:43:49.788Z,-10.01
2023-02-08T06:46:19.424Z,-9.84
2023-02-08T06:48:49.077Z,-9.69
2023-02-08T06:51:18.700Z,-9.58
2023-02-08T06:53:48.304Z,-9.49
2023-02-08T06:56:17.886Z,-9.35
2023-02-08T06:58:47.391Z,-9.20
2023-02-08T07:01:17.019Z,-9.07
2023-02-08T07:03:48.580Z,-8.95
2023-02-08T07:06:19.349Z,-8.80
2023-02-08T07:08:48.911Z,-8.64
2023-02-08T07:11:20.341Z,-8.50
2023-02-08T07:13:50.026Z,-8.36
2023-02-08T07:16:19.908Z,-8.19
2023-02-08T07:18:49.880Z,-8.01
2023-02-08T07:21:19.445Z,-7.81
2023-02-08T07:23:48.988Z,-7.59
2023-02-08T07:26:18.286Z,-7.37
2023-02-08T07:28:47.520Z,-7.17
2023-02-08T07:31:17.275Z,-6.96
2023-02-08T07:33:47.735Z,-6.80
2023-02-08T07:36:17.048Z,-6.64
2023-02-08T07:38:46.057Z,-6.47
2023-02-08T07:41:15.495Z,-6.28
2023-02-08T07:43:44.706Z,-6.07
2023-02-08T07:46:15.445Z,-5.89
2023-02-08T07:48:44.708Z,-5.73
2023-02-08T07:51:14.227Z,-5.54
2023-02-08T07:53:43.762Z,-5.28
2023-02-08T07:56:12.214Z,-5.06
2023-02-08T07:58:42.531Z,-4.86
2023-02-08T08:01:21.967Z,-4.67
2023-02-08T08:03:52.969Z,-4.51
2023-02-08T08:06:23.452Z,-4.36
2023-02-08T08:08:51.902Z,-4.26
2023-02-08T08:11:21.140Z,-4.05
2023-02-08T08:13:51.284Z,-3.82
2023-02-08T08:16:21.006Z,-3.53
2023-02-08T08:18:51.192Z,-3.27
2023-02-08T08:21:20.399Z,-3.06
2023-02-08T08:23:49.881Z,-2.92
2023-02-08T08:26:20.467Z,-2.75
2023-02-08T08:28:50.154Z,-2.42
2023-02-08T08:31:21.227Z,-2.05
2023-02-08T08:33:51.114Z,-1.82
2023-02-08T08:36:20.232Z,-1.71
2023-02-08T08:38:49.583Z,-1.52
2023-02-08T08:41:19.111Z,-1.36
2023-02-08T08:43:49.096Z,-1.13
2023-02-08T08:46:18.662Z,-0.98
2023-02-08T08:48:47.748Z,-0.87
2023-02-08T08:51:16.899Z,-0.71
2023-02-08T08:53:46.118Z,-0.49
2023-02-08T08:56:15.437Z,-0.36
2023-02-08T08:58:45.001Z,-0.28
2023-02-08T09:01:14.534Z,-0.15
2023-02-08T09:03:44.272Z,-0.13
2023-02-08T09:06:13.551Z,-0.11
2023-02-08T09:08:42.515Z,-0.04
2023-02-08T09:11:13.435Z,0.12
2023-02-08T09:13:43.435Z,0.24
2023-02-08T09:16:17.322Z,0.45
2023-02-08T09:18:46.543Z,0.65
2023-02-08T09:21:17.343Z,0.77
2023-02-08T09:23:49.657Z,0.89
2023-02-08T09:26:19.958Z,1.00
2023-02-08T09:28:49.425Z,1.18
2023-02-08T09:31:26.500Z,1.37
2023-02-08T09:33:56.657Z,1.56
2023-02-08T09:36:27.263Z,1.69
2023-02-08T09:39:02.120Z,1.87
2023-02-08T09:41:50.534Z,2.10
2023-02-08T09:44:38.862Z,2.26
2023-02-08T09:47:08.484Z,2.53
2023-02-08T09:49:41.051Z,2.75
2023-02-08T09:52:19.014Z,2.92
2023-02-08T09:54:51.622Z,2.86
2023-02-08T09:57:27.012Z,2.92
2023-02-08T10:00:02.280Z,2.98
2023-02-08T10:02:35.148Z,2.92
2023-02-08T10:05:07.380Z,2.86
2023-02-08T10:07:37.679Z,2.76
2023-02-08T10:10:13.005Z,2.77
2023-02-08T10:13:14.342Z,2.81
2023-02-08T10:15:54.065Z,2.97
2023-02-08T10:18:26.155Z,3.17
2023-02-08T10:21:14.472Z,3.38
2023-02-08T10:23:46.551Z,3.45
2023-02-08T10:26:22.312Z,3.51
2023-02-08T10:29:10.503Z,3.80
2023-02-08T10:32:00.215Z,4.08
2023-02-08T10:34:45.078Z,4.19
2023-02-08T10:37:21.860Z,4.08
2023-02-08T10:39:52.052Z,3.98
2023-02-08T10:42:24.732Z,4.09
2023-02-08T10:45:24.187Z,4.22
2023-02-08T10:47:55.926Z,4.30
2023-02-08T10:50:31.103Z,4.47
2023-02-08T10:53:00.414Z,4.61
2023-02-08T10:55:30.914Z,4.60
2023-02-08T10:58:01.761Z,4.65
2023-02-08T11:00:39.922Z,4.81
2023-02-08T11:03:16.944Z,5.10
2023-02-08T11:05:46.146Z,5.16
2023-02-08T11:08:19.922Z,5.14
2023-02-08T11:11:00.532Z,5.10
2023-02-08T11:13:51.815Z,5.15
2023-02-08T11:16:29.003Z,5.23
2023-02-08T11:19:02.343Z,5.37
2023-02-08T11:21:41.357Z,5.35
2023-02-08T11:24:16.761Z,5.14
2023-02-08T11:26:49.500Z,5.12
2023-02-08T11:29:20.060Z,5.00
2023-02-08T11:32:00.649Z,4.95
2023-02-08T11:34:38.993Z,4.86
2023-02-08T11:37:29.404Z,4.87
2023-02-08T11:39:59.695Z,4.90
2023-02-08T11:42:30.588Z,5.13
2023-02-08T11:45:00.542Z,5.22
2023-02-08T11:47:31.769Z,5.28
2023-02-08T11:50:03.274Z,5.28
2023-02-08T11:52:35.836Z,5.32
2023-02-08T11:55:24.549Z,5.32
2023-02-08T11:57:57.014Z,5.24
2023-02-08T12:00:28.151Z,5.25
2023-02-08T12:03:26.623Z,5.24
2023-02-08T12:06:05.658Z,5.17
2023-02-08T12:08:37.356Z,5.00
2023-02-08T12:11:16.786Z,4.87
2023-02-08T12:13:54.044Z,4.85
2023-02-08T12:16:34.851Z,4.76
2023-02-08T12:19:17.717Z,4.78
2023-02-08T12:21:48.456Z,4.73
2023-02-08T12:24:41.480Z,4.93
2023-02-08T12:27:28.094Z,5.11
2023-02-08T12:30:12.483Z,5.10
2023-02-08T12:32:47.552Z,5.16
2023-02-08T12:35:43.546Z,5.29
2023-02-08T12:38:55.475Z,5.20
2023-02-08T12:41:40.819Z,5.15
2023-02-08T12:44:13.036Z,5.12
2023-02-08T12:46:57.441Z,5.06
2023-02-08T12:49:48.660Z,5.10
2023-02-08T12:52:38.493Z,5.25
2023-02-08T12:55:19.265Z,5.34
2023-02-08T12:57:53.281Z,5.38
2023-02-08T13:00:26.061Z,5.39
2023-02-08T13:03:15.739Z,5.53
2023-02-08T13:06:01.811Z,5.61
2023-02-08T13:08:32.569Z,5.43
2023-02-08T13:11:18.911Z,5.35
2023-02-08T13:13:56.697Z,5.40
2023-02-08T13:16:31.842Z,5.57
2023-02-08T13:19:22.889Z,5.65
2023-02-08T13:21:52.825Z,5.81
2023-02-08T13:24:35.312Z,5.98
2023-02-08T13:27:07.868Z,6.08
2023-02-08T13:29:38.408Z,5.99
2023-02-08T13:32:15.358Z,5.88
2023-02-08T13:34:51.298Z,5.79
2023-02-08T13:37:26.056Z,5.74
2023-02-08T13:40:21.703Z,5.59
2023-02-08T13:42:59.318Z,5.47
2023-02-08T13:45:28.545Z,5.40
2023-02-08T13:48:00.159Z,5.32
2023-02-08T13:50:35.379Z,5.28
2023-02-08T13:53:05.865Z,5.28
2023-02-08T13:55:36.340Z,5.25
2023-02-08T13:58:14.547Z,5.11
2023-02-08T14:00:55.353Z,5.12
2023-02-08T14:03:30.269Z,5.22
2023-02-08T14:06:02.192Z,5.23
2023-02-08T14:08:35.455Z,5.17
2023-02-08T14:11:34.276Z,5.07
2023-02-08T14:14:21.846Z,4.78
2023-02-08T14:17:06.400Z,4.79
2023-02-08T14:19:37.215Z,4.72
2023-02-08T14:22:12.654Z,4.51
2023-02-08T14:24:48.484Z,4.23
2023-02-08T14:27:20.317Z,3.97
2023-02-08T14:30:03.392Z,3.82
2023-02-08T14:32:34.720Z,3.67
2023-02-08T14:35:09.373Z,3.53
2023-02-08T14:37:39.405Z,3.44
2023-02-08T14:40:18.632Z,3.31
2023-02-08T14:42:53.887Z,3.14
2023-02-08T14:45:29.376Z,3.04
2023-02-08T14:48:17.449Z,2.92
2023-02-08T14:51:05.514Z,2.71
2023-02-08T14:53:40.517Z,2.53
2023-02-08T14:56:26.969Z,2.31
2023-02-08T14:58:57.979Z,2.04
2023-02-08T15:01:29.976Z,1.72
2023-02-08T15:04:02.390Z,1.48
2023-02-08T15:06:39.526Z,1.19
2023-02-08T15:09:18.031Z,0.97
2023-02-08T15:12:12.195Z,0.69
2023-02-08T15:14:42.460Z,0.36
2023-02-08T15:17:23.485Z,0.13
2023-02-08T15:19:53.256Z,-0.09
2023-02-08T15:22:25.252Z,-0.20
2023-02-08T15:24:56.074Z,-0.22
2023-02-08T15:27:27.368Z,-0.25
2023-02-08T15:29:56.773Z,-0.27
2023-02-08T15:32:26.682Z,-0.34
2023-02-08T15:34:55.879Z,-0.40
2023-02-08T15:37:25.523Z,-0.50
2023-02-08T15:39:55.838Z,-0.64
2023-02-08T15:42:26.824Z,-0.82
2023-02-08T15:44:56.559Z,-0.94
2023-02-08T15:47:30.585Z,-1.03
2023-02-08T15:50:00.718Z,-1.16
2023-02-08T15:52:31.936Z,-1.21
2023-02-08T15:55:01.526Z,-1.21
2023-02-08T15:57:33.732Z,-1.25
2023-02-08T16:00:06.820Z,-1.34
2023-02-08T16:02:37.159Z,-1.42
2023-02-08T16:05:28.995Z,-1.62
2023-02-08T16:07:58.486Z,-1.84
2023-02-08T16:10:34.199Z,-2.02
2023-02-08T16:13:08.508Z,-2.15
2023-02-08T16:15:45.618Z,-2.28
2023-02-08T16:18:47.469Z,-2.42
2023-02-08T16:21:20.226Z,-2.60
2023-02-08T16:23:51.279Z,-2.82
2023-02-08T16:26:20.400Z,-3.08
2023-02-08T16:29:17.796Z,-3.31
2023-02-08T16:31:48.831Z,-3.57
2023-02-08T16:34:23.714Z,-3.73
2023-02-08T16:36:53.286Z,-3.83
2023-02-08T16:39:24.131Z,-3.95
2023-02-08T16:42:09.596Z,-4.09
2023-02-08T16:45:07.337Z,-4.17
2023-02-08T16:47:38.058Z,-4.23
2023-02-08T16:50:09.967Z,-4.28
2023-02-08T16:52:39.513Z,-4.29
2023-02-08T16:55:16.271Z,-4.27
2023-02-08T16:57:47.522Z,-4.21
2023-02-08T17:00:17.893Z,-4.18
2023-02-08T17:02:47.803Z,-4.20
2023-02-08T17:05:17.631Z,-4.21
2023-02-08T17:07:49.209Z,-4.26
2023-02-08T17:10:22.872Z,-4.33
2023-02-08T17:12:54.371Z,-4.41
2023-02-08T17:15:29.994Z,-4.51
2023-02-08T17:17:59.169Z,-4.58
2023-02-08T17:20:29.447Z,-4.64
2023-02-08T17:22:59.429Z,-4.67
2023-02-08T17:25:29.501Z,-4.71
2023-02-08T17:28:03.558Z,-4.77
2023-02-08T17:30:34.125Z,-4.84
2023-02-08T17:33:07.897Z,-4.91
2023-02-08T17:35:38.679Z,-5.00
2023-02-08T17:38:08.358Z,-5.12
2023-02-08T17:40:37.692Z,-5.20
2023-02-08T17:43:07.298Z,-5.27
2023-02-08T17:45:37.965Z,-5.35
2023-02-08T17:48:08.360Z,-5.47
2023-02-08T17:50:41.247Z,-5.65
2023-02-08T17:53:12.584Z,-5.84
2023-02-08T17:55:45.763Z,-6.03
2023-02-08T17:58:15.694Z,-6.19
2023-02-08T18:00:44.305Z,-6.24
2023-02-08T18:03:13.956Z,-6.26
2023-02-08T18:05:43.546Z,-6.28
2023-02-08T18:08:13.223Z,-6.31
2023-02-08T18:10:43.065Z,-6.35
2023-02-08T18:13:12.711Z,-6.38
2023-02-08T18:15:45.270Z,-6.40
2023-02-08T18:18:16.020Z,-6.42
2023-02-08T18:20:46.741Z,-6.45
2023-02-08T18:23:15.208Z,-6.51
2023-02-08T18:25:44.925Z,-6.56
2023-02-08T18:28:16.984Z,-6.61
2023-02-08T18:30:47.041Z,-6.63
2023-02-08T18:33:16.875Z,-6.63
2023-02-08T18:35:49.918Z,-6.64
2023-02-08T18:38:19.058Z,-6.67
2023-02-08T18:40:48.638Z,-6.71
2023-02-08T18:43:17.912Z,-6.75
2023-02-08T18:46:06.910Z,-6.81
2023-02-08T18:48:37.123Z,-6.85
2023-02-08T18:51:07.363Z,-6.91
2023-02-08T18:53:38.393Z,-6.96
2023-02-08T18:56:10.100Z,-7.00
2023-02-08T18:58:39.910Z,-7.06
2023-02-08T19:01:13.572Z,-7.11
2023-02-08T19:03:43.576Z,-7.19
2023-02-08T19:06:14.297Z,-7.31
2023-02-08T19:08:44.405Z,-7.40
2023-02-08T19:11:19.027Z,-7.48
2023-02-08T19:13:48.358Z,-7.52
2023-02-08T19:16:18.258Z,-7.60
2023-02-08T19:18:48.570Z,-7.66
2023-02-08T19:21:18.431Z,-7.74
2023-02-08T19:23:49.462Z,-7.80
2023-02-08T19:26:22.862Z,-7.86
2023-02-08T19:28:53.294Z,-7.94
2023-02-08T19:31:23.476Z,-8.07
2023-02-08T19:34:00.875Z,-8.21
2023-02-08T19:36:33.834Z,-8.29
2023-02-08T19:39:04.749Z,-8.34
2023-02-08T19:41:36.965Z,-8.37
2023-02-08T19:44:07.710Z,-8.38
2023-02-08T19:46:39.197Z,-8.40
2023-02-08T19:49:08.321Z,-8.45
2023-02-08T19:51:37.529Z,-8.49
2023-02-08T19:54:09.782Z,-8.50
2023-02-08T19:56:38.575Z,-8.52
2023-02-08T19:59:09.604Z,-8.52
2023-02-08T20:01:38.036Z,-8.52
2023-02-08T20:04:07.319Z,-8.54
2023-02-08T20:06:39.189Z,-8.57
2023-02-08T20:09:08.883Z,-8.69
2023-02-08T20:11:51.248Z,-8.82
2023-02-08T20:14:26.333Z,-8.90
2023-02-08T20:16:55.085Z,-8.93
2023-02-08T20:19:24.291Z,-8.95
2023-02-08T20:21:55.466Z,-8.95
2023-02-08T20:24:24.742Z,-8.96
2023-02-08T20:26:54.049Z,-8.94
2023-02-08T20:29:23.510Z,-8.96
2023-02-08T20:31:56.077Z,-8.98
2023-02-08T20:34:25.269Z,-9.05
2023-02-08T20:37:06.913Z,-9.07
2023-02-08T20:39:38.085Z,-9.14
2023-02-08T20:42:06.554Z,-9.21
2023-02-08T20:44:35.592Z,-9.27
2023-02-08T20:47:04.341Z,-9.33
2023-02-08T20:49:36.583Z,-9.40
2023-02-08T20:52:05.811Z,-9.44
2023-02-08T20:54:37.565Z,-9.49
2023-02-08T20:57:07.619Z,-9.53
2023-02-08T20:59:36.042Z,-9.55
2023-02-08T21:02:05.752Z,-9.57
2023-02-08T21:04:35.589Z,-9.58
2023-02-08T21:07:04.721Z,-9.59
2023-02-08T21:09:33.925Z,-9.58
2023-02-08T21:12:03.247Z,-9.57
2023-02-08T21:14:33.140Z,-9.55
2023-02-08T21:17:02.539Z,-9.55
2023-02-08T21:19:31.820Z,-9.54
2023-02-08T21:22:01.806Z,-9.55
2023-02-08T21:24:31.305Z,-9.57
2023-02-08T21:27:01.277Z,-9.59
2023-02-08T21:29:32.981Z,-9.64
2023-02-08T21:32:02.958Z,-9.69
2023-02-08T21:34:32.724Z,-9.74
2023-02-08T21:37:02.121Z,-9.81
2023-02-08T21:39:31.704Z,-9.89
2023-02-08T21:42:03.186Z,-9.95
2023-02-08T21:44:36.374Z,-10.02
2023-02-08T21:47:05.847Z,-10.07
2023-02-08T21:49:54.377Z,-10.12
2023-02-08T21:52:43.753Z,-10.19
2023-02-08T21:55:12.946Z,-10.23
2023-02-08T21:57:42.010Z,-10.26
2023-02-08T22:00:11.670Z,-10.25
2023-02-08T22:02:45.197Z,-10.28
2023-02-08T22:05:34.538Z,-10.32
2023-02-08T22:08:04.189Z,-10.35
2023-02-08T22:10:33.460Z,-10.38
2023-02-08T22:13:02.159Z,-10.42
2023-02-08T22:15:31.814Z,-10.50
2023-02-08T22:18:02.566Z,-10.56
2023-02-08T22:20:32.273Z,-10.58
2023-02-08T22:23:00.738Z,-10.60
2023-02-08T22:25:29.896Z,-10.59
2023-02-08T22:27:59.835Z,-10.63
2023-02-08T22:30:28.855Z,-10.67
2023-02-08T22:32:58.063Z,-10.71
2023-02-08T22:35:27.115Z,-10.73
2023-02-08T22:37:56.617Z,-10.75
2023-02-08T22:40:25.789Z,-10.77
2023-02-08T22:42:55.221Z,-10.76
2023-02-08T22:45:24.305Z,-10.76
2023-02-08T22:47:54.429Z,-10.77
2023-02-08T22:50:23.548Z,-10.79
2023-02-08T22:52:53.124Z,-10.80
2023-02-08T22:55:21.542Z,-10.85
2023-02-08T22:57:51.026Z,-10.88
2023-02-08T23:00:20.287Z,-10.91
2023-02-08T23:02:49.825Z,-10.96
2023-02-08T23:05:19.040Z,-10.96
2023-02-08T23:07:48.466Z,-10.95
2023-02-08T23:10:17.662Z,-10.98
2023-02-08T23:12:47.021Z,-10.99
2023-02-08T23:15:15.462Z,-11.04
2023-02-08T23:17:46.189Z,-11.12
2023-02-08T23:20:15.328Z,-11.17
2023-02-08T23:22:44.809Z,-11.22
2023-02-08T23:25:15.914Z,-11.24
2023-02-08T23:27:46.946Z,-11.26
2023-02-08T23:30:16.529Z,-11.30
2023-02-08T23:32:46.114Z,-11.34
2023-02-08T23:35:15.867Z,-11.36
2023-02-08T23:37:44.205Z,-11.38
2023-02-08T23:40:13.904Z,-11.37
2023-02-08T23:42:43.094Z,-11.35
2023-02-08T23:45:12.300Z,-11.33
2023-02-08T23:47:41.509Z,-11.32
2023-02-08T23:50:11.248Z,-11.31
2023-02-08T23:52:40.505Z,-11.31
2023-02-08T23:55:10.110Z,-11.33
2023-02-08T23:57:39.816Z,-11.38
